Terminal Aerodrome Forecast
Issued by NWS

Home | Current Version | Previous Version | Text Only | Print | Product List | Glossary On
Versions: 1 2 3 4 5 6 7 8 9 10 11 12
000
FTUS42 KTBW 220500 RRA
TAFLAL
TAF
KLAL 220541Z 2206/2306 VRB03KT P6SM BKN250
     FM221400 02006KT P6SM BKN250
     FM230300 06010KT P6SM SCT250
      AMD NOT SKED TIL 221200=

USA.gov is the U.S. government's official web portal to all federal, state and local government web resources and services.